createdAt,value
2018-05-24T00:00:28.953Z,102417.60
2018-05-24T00:03:32.334Z,102408.80
2018-05-24T00:06:35.740Z,102412.22
2018-05-24T00:09:39.125Z,102413.09
2018-05-24T00:12:42.512Z,102417.47
2018-05-24T00:15:45.896Z,102414.41
2018-05-24T00:18:49.332Z,102416.02
2018-05-24T00:21:54.253Z,102417.06
2018-05-24T00:24:57.552Z,102419.34
2018-05-24T00:28:00.944Z,102416.02
2018-05-24T00:31:04.282Z,102422.06
2018-05-24T00:34:08.416Z,102420.31
2018-05-24T00:37:11.752Z,102422.73
2018-05-24T00:40:15.095Z,102427.67
2018-05-24T00:43:18.446Z,102416.92
2018-05-24T00:46:21.832Z,102425.80
2018-05-24T00:49:25.196Z,102427.26
2018-05-24T00:52:28.540Z,102418.77
2018-05-24T00:55:42.749Z,102421.73
2018-05-24T00:58:46.149Z,102420.34
2018-05-24T01:01:49.465Z,102418.53
2018-05-24T01:04:52.794Z,102413.95
2018-05-24T01:07:56.171Z,102413.55
2018-05-24T01:10:59.568Z,102413.11
2018-05-24T01:14:02.979Z,102416.31
2018-05-24T01:17:06.326Z,102420.79
2018-05-24T01:20:09.726Z,102417.58
2018-05-24T01:23:13.177Z,102418.88
2018-05-24T01:26:17.282Z,102416.61
2018-05-24T01:29:20.617Z,102420.25
2018-05-24T01:32:23.925Z,102423.53
2018-05-24T01:35:28.037Z,102421.84
2018-05-24T01:38:31.395Z,102433.48
2018-05-24T01:41:34.757Z,102433.63
2018-05-24T01:44:38.177Z,102432.02
2018-05-24T01:47:41.561Z,102435.66
2018-05-24T01:50:44.946Z,102438.78
2018-05-24T01:53:48.323Z,102439.34
2018-05-24T01:56:51.661Z,102445.74
2018-05-24T01:59:55.015Z,102442.50
2018-05-24T02:02:58.363Z,102447.67
2018-05-24T02:06:02.505Z,102442.46
2018-05-24T02:09:06.616Z,102443.38
2018-05-24T02:12:10.802Z,102445.95
2018-05-24T02:15:14.110Z,102439.93
2018-05-24T02:18:17.454Z,102434.28
2018-05-24T02:21:20.781Z,102437.98
2018-05-24T02:24:24.187Z,102433.85
2018-05-24T02:27:27.498Z,102432.69
2018-05-24T02:30:32.339Z,102438.48
2018-05-24T02:33:35.725Z,102436.77
2018-05-24T02:36:39.083Z,102440.69
2018-05-24T02:39:42.399Z,102443.80
2018-05-24T02:42:45.795Z,102442.33
2018-05-24T02:45:49.197Z,102441.73
2018-05-24T02:48:52.510Z,102439.39
2018-05-24T02:51:56.715Z,102448.00
2018-05-24T02:55:00.077Z,102446.61
2018-05-24T02:58:03.475Z,102440.95
2018-05-24T03:01:06.867Z,102443.95
2018-05-24T03:04:10.171Z,102446.91
2018-05-24T03:07:13.561Z,102445.07
2018-05-24T03:10:16.893Z,102446.73
2018-05-24T03:13:20.294Z,102451.80
2018-05-24T03:16:23.696Z,102450.40
2018-05-24T03:19:27.181Z,102456.66
2018-05-24T03:22:30.639Z,102452.51
2018-05-24T03:25:33.994Z,102451.97
2018-05-24T03:28:37.304Z,102447.63
2018-05-24T03:31:41.479Z,102451.65
2018-05-24T03:34:44.974Z,102447.86
2018-05-24T03:37:48.344Z,102448.27
2018-05-24T03:40:51.701Z,102445.25
2018-05-24T03:43:55.825Z,102445.81
2018-05-24T03:46:59.146Z,102445.30
2018-05-24T03:50:02.484Z,102440.70
2018-05-24T03:53:05.802Z,102433.39
2018-05-24T03:56:09.149Z,102432.06
2018-05-24T04:03:40.558Z,102431.64
2018-05-24T04:06:43.955Z,102443.27
2018-05-24T04:09:47.353Z,102441.47
2018-05-24T04:12:50.744Z,102443.58
2018-05-24T04:15:54.159Z,102442.11
2018-05-24T04:18:57.473Z,102445.42
2018-05-24T04:22:00.797Z,102443.44
2018-05-24T04:25:04.132Z,102433.05
2018-05-24T04:28:07.534Z,102432.08
2018-05-24T04:31:10.928Z,102432.81
2018-05-24T04:34:14.339Z,102433.95
2018-05-24T04:37:17.673Z,102439.86
2018-05-24T04:40:21.834Z,102440.96
2018-05-24T04:43:25.158Z,102434.97
2018-05-24T04:46:29.963Z,102437.33
2018-05-24T04:49:33.339Z,102435.74
2018-05-24T04:52:36.759Z,102438.12
2018-05-24T04:55:40.088Z,102430.42
2018-05-24T04:58:44.176Z,102435.94
2018-05-24T05:01:47.501Z,102424.64
2018-05-24T05:04:51.604Z,102424.47
2018-05-24T05:07:54.924Z,102424.52
2018-05-24T05:10:58.386Z,102420.26
2018-05-24T05:14:01.720Z,102423.80
2018-05-24T05:17:05.830Z,102428.87
2018-05-24T05:20:09.918Z,102429.84
2018-05-24T05:23:13.356Z,102436.55
2018-05-24T05:26:16.591Z,102434.95
2018-05-24T05:29:19.888Z,102434.66
2018-05-24T05:32:23.290Z,102435.29
2018-05-24T05:35:26.725Z,102442.88
2018-05-24T05:38:30.909Z,102443.97
2018-05-24T05:41:34.221Z,102440.13
2018-05-24T05:44:38.416Z,102444.69
2018-05-24T05:47:41.816Z,102443.58
2018-05-24T05:50:45.197Z,102449.41
2018-05-24T05:53:48.547Z,102449.49
2018-05-24T05:56:52.669Z,102452.24
2018-05-24T05:59:56.025Z,102453.23
2018-05-24T06:02:59.349Z,102453.87
2018-05-24T06:06:03.429Z,102456.06
2018-05-24T06:09:08.269Z,102461.44
2018-05-24T06:12:11.654Z,102461.95
2018-05-24T06:15:14.974Z,102464.14
2018-05-24T06:18:18.444Z,102463.53
2018-05-24T06:21:22.354Z,102463.60
2018-05-24T06:24:26.113Z,102458.81
2018-05-24T06:27:29.592Z,102457.53
2018-05-24T06:30:34.125Z,102451.97
2018-05-24T06:33:37.632Z,102453.10
2018-05-24T06:36:41.762Z,102444.86
2018-05-24T06:39:45.089Z,102450.53
2018-05-24T06:42:48.706Z,102442.70
2018-05-24T06:45:52.104Z,102448.08
2018-05-24T06:48:55.455Z,102448.16
2018-05-24T06:51:58.770Z,102449.98
2018-05-24T06:55:02.113Z,102454.42
2018-05-24T06:58:05.434Z,102456.59
2018-05-24T07:01:09.513Z,102457.83
2018-05-24T07:04:13.617Z,102443.84
2018-05-24T07:07:16.974Z,102450.47
2018-05-24T07:10:20.293Z,102447.92
2018-05-24T07:13:23.657Z,102439.94
2018-05-24T07:16:26.984Z,102450.91
2018-05-24T07:19:30.328Z,102457.97
2018-05-24T07:22:34.423Z,102456.34
2018-05-24T07:25:38.643Z,102454.69
2018-05-24T07:28:41.972Z,102466.59
2018-05-24T07:31:45.326Z,102456.52
2018-05-24T07:34:48.643Z,102468.81
2018-05-24T07:37:52.119Z,102469.65
2018-05-24T07:40:55.364Z,102461.25
2018-05-24T07:43:58.830Z,102467.11
2018-05-24T07:47:03.029Z,102461.05
2018-05-24T07:50:06.453Z,102458.41
2018-05-24T07:53:10.531Z,102459.31
2018-05-24T07:56:13.823Z,102453.56
2018-05-24T07:59:17.179Z,102458.33
2018-05-24T08:02:20.525Z,102461.86
2018-05-24T08:05:23.810Z,102461.47
2018-05-24T08:08:27.149Z,102464.54
2018-05-24T08:11:30.486Z,102465.11
2018-05-24T08:14:33.839Z,102467.86
2018-05-24T08:17:37.211Z,102468.58
2018-05-24T08:20:40.610Z,102460.16
2018-05-24T08:23:43.897Z,102469.16
2018-05-24T08:26:47.543Z,102463.53
2018-05-24T08:29:51.620Z,102460.85
2018-05-24T08:32:54.994Z,102454.20
2018-05-24T08:35:58.308Z,102453.70
2018-05-24T08:39:01.658Z,102454.55
2018-05-24T08:42:04.983Z,102447.58
2018-05-24T08:45:08.336Z,102451.94
2018-05-24T08:48:12.522Z,102452.45
2018-05-24T08:51:15.920Z,102458.73
2018-05-24T08:54:19.370Z,102448.22
2018-05-24T08:57:22.704Z,102461.97
2018-05-24T09:00:26.042Z,102459.88
2018-05-24T09:03:29.517Z,102455.09
2018-05-24T09:06:32.833Z,102449.88
2018-05-24T09:09:36.146Z,102456.94
2018-05-24T09:12:39.513Z,102453.43
2018-05-24T09:15:42.902Z,102455.61
2018-05-24T09:18:46.251Z,102460.09
2018-05-24T09:21:49.683Z,102461.03
2018-05-24T09:24:53.810Z,102461.94
2018-05-24T09:27:57.165Z,102464.13
2018-05-24T09:31:00.478Z,102462.39
2018-05-24T09:34:03.818Z,102460.22
2018-05-24T09:37:08.039Z,102463.33
2018-05-24T09:40:12.225Z,102465.09
2018-05-24T09:43:15.599Z,102467.75
2018-05-24T09:46:19.023Z,102462.03
2018-05-24T09:49:22.358Z,102469.98
2018-05-24T09:52:26.448Z,102458.07
2018-05-24T09:55:32.718Z,102465.55
2018-05-24T09:58:36.085Z,102470.89
2018-05-24T10:01:39.401Z,102469.56
2018-05-24T10:04:42.767Z,102462.94
2018-05-24T10:07:46.069Z,102457.66
2018-05-24T10:10:49.415Z,102449.73
2018-05-24T10:13:53.551Z,102458.54
2018-05-24T10:16:56.880Z,102457.66
2018-05-24T10:20:00.393Z,102448.38
2018-05-24T10:23:03.777Z,102451.44
2018-05-24T10:26:07.089Z,102450.13
2018-05-24T10:29:10.421Z,102433.36
2018-05-24T10:32:14.613Z,102427.64
2018-05-24T10:35:17.996Z,102428.08
2018-05-24T10:38:21.348Z,102437.31
2018-05-24T10:41:24.719Z,102425.88
2018-05-24T10:44:28.906Z,102434.31
2018-05-24T10:47:32.304Z,102426.37
2018-05-24T10:50:35.684Z,102427.66
2018-05-24T10:53:38.988Z,102430.32
2018-05-24T10:56:42.331Z,102433.84
2018-05-24T10:59:46.480Z,102428.58
2018-05-24T11:02:49.907Z,102428.55
2018-05-24T11:05:53.409Z,102429.42
2018-05-24T11:08:56.802Z,102430.73
2018-05-24T11:12:00.199Z,102428.52
2018-05-24T11:15:03.597Z,102424.12
2018-05-24T11:18:06.994Z,102419.72
2018-05-24T11:21:10.450Z,102421.45
2018-05-24T11:24:13.789Z,102421.44
2018-05-24T11:27:17.181Z,102408.14
2018-05-24T11:30:20.599Z,102403.30
2018-05-24T11:33:23.914Z,102409.44
2018-05-24T11:36:28.014Z,102410.70
2018-05-24T11:39:31.308Z,102402.25
2018-05-24T11:42:35.500Z,102401.83
2018-05-24T11:45:38.821Z,102393.81
2018-05-24T11:48:42.150Z,102391.26
2018-05-24T11:51:45.505Z,102390.42
2018-05-24T11:54:48.882Z,102395.87
2018-05-24T11:57:52.223Z,102396.29
2018-05-24T12:00:56.390Z,102391.95
2018-05-24T12:04:00.434Z,102389.77
2018-05-24T12:07:03.861Z,102392.87
2018-05-24T12:10:07.135Z,102384.45
2018-05-24T12:13:10.522Z,102384.91
2018-05-24T12:16:13.868Z,102395.92
2018-05-24T12:19:17.233Z,102381.34
2018-05-24T12:22:21.404Z,102387.03
2018-05-24T12:25:24.803Z,102377.30
2018-05-24T12:28:28.234Z,102381.77
2018-05-24T12:31:31.583Z,102373.80
2018-05-24T12:34:34.915Z,102375.09
2018-05-24T12:37:38.295Z,102374.60
2018-05-24T12:40:41.633Z,102367.09
2018-05-24T12:43:45.698Z,102372.37
2018-05-24T12:46:49.037Z,102357.79
2018-05-24T12:49:53.120Z,102352.13
2018-05-24T12:52:56.471Z,102354.32
2018-05-24T12:55:59.915Z,102344.16
2018-05-24T12:59:03.234Z,102341.53
2018-05-24T13:02:06.570Z,102342.83
2018-05-24T13:05:09.892Z,102342.30
2018-05-24T13:08:13.318Z,102337.73
2018-05-24T13:11:16.751Z,102331.95
2018-05-24T13:14:20.059Z,102326.20
2018-05-24T13:17:23.365Z,102328.48
2018-05-24T13:20:26.731Z,102311.66
2018-05-24T13:23:30.102Z,102320.95
2018-05-24T13:26:33.509Z,102317.44
2018-05-24T13:29:37.699Z,102326.72
2018-05-24T13:32:41.035Z,102315.28
2018-05-24T13:35:45.121Z,102313.55
2018-05-24T13:38:48.478Z,102308.33
2018-05-24T13:41:51.898Z,102299.05
2018-05-24T13:44:55.307Z,102296.00
2018-05-24T13:47:58.624Z,102297.30
2018-05-24T13:51:01.973Z,102287.94
2018-05-24T13:54:05.304Z,102291.14
2018-05-24T13:57:08.680Z,102288.92
2018-05-24T14:00:12.088Z,102302.16
2018-05-24T14:03:15.490Z,102287.98
2018-05-24T14:06:18.806Z,102287.23
2018-05-24T14:09:23.038Z,102280.62
2018-05-24T14:12:26.395Z,102283.14
2018-05-24T14:15:29.744Z,102286.64
2018-05-24T14:18:33.085Z,102285.86
2018-05-24T14:21:36.445Z,102272.14
2018-05-24T14:24:39.769Z,102273.87
2018-05-24T14:27:43.165Z,102270.77
2018-05-24T14:30:46.498Z,102269.49
2018-05-24T14:33:50.692Z,102276.54
2018-05-24T14:36:53.996Z,102266.42
2018-05-24T14:39:57.331Z,102256.79
2018-05-24T14:43:00.675Z,102257.27
2018-05-24T14:46:04.082Z,102256.78
2018-05-24T14:49:08.186Z,102240.08
2018-05-24T14:52:11.524Z,102252.93
2018-05-24T14:55:15.695Z,102244.55
2018-05-24T14:58:19.024Z,102248.88
2018-05-24T15:01:23.225Z,102242.22
2018-05-24T15:04:26.568Z,102242.64
2018-05-24T15:07:30.013Z,102238.15
2018-05-24T15:10:33.317Z,102227.29
2018-05-24T15:13:50.220Z,102225.23
2018-05-24T15:16:53.618Z,102230.65
2018-05-24T15:19:56.968Z,102228.36
2018-05-24T15:23:00.405Z,102226.30
2018-05-24T15:26:03.762Z,102232.30
2018-05-24T15:29:07.099Z,102219.73
2018-05-24T15:32:10.436Z,102216.10
2018-05-24T15:35:14.526Z,102217.16
2018-05-24T15:38:17.862Z,102213.37
2018-05-24T15:41:21.322Z,102205.55
2018-05-24T15:44:24.641Z,102207.95
2018-05-24T15:47:28.814Z,102203.03
2018-05-24T15:50:32.142Z,102202.67
2018-05-24T15:53:36.261Z,102198.50
2018-05-24T15:56:40.348Z,102198.95
2018-05-24T15:59:43.749Z,102189.66
2018-05-24T16:02:47.137Z,102191.27
2018-05-24T16:05:50.474Z,102191.91
2018-05-24T16:08:54.600Z,102191.95
2018-05-24T16:11:57.917Z,102196.47
2018-05-24T16:15:01.257Z,102194.68
2018-05-24T16:18:04.586Z,102183.71
2018-05-24T16:21:07.940Z,102184.59
2018-05-24T16:24:11.342Z,102188.70
2018-05-24T16:27:14.704Z,102183.38
2018-05-24T16:30:18.077Z,102182.01
2018-05-24T16:33:21.463Z,102181.70
2018-05-24T16:36:25.656Z,102182.64
2018-05-24T16:39:28.969Z,102173.31
2018-05-24T16:42:33.145Z,102172.63
2018-05-24T16:45:36.570Z,102167.28
2018-05-24T16:48:39.970Z,102171.48
2018-05-24T16:51:44.065Z,102162.45
2018-05-24T16:54:47.388Z,102163.81
2018-05-24T16:57:51.586Z,102161.02
2018-05-24T17:00:54.969Z,102160.19
2018-05-24T17:03:58.362Z,102156.66
2018-05-24T17:07:01.686Z,102154.42
2018-05-24T17:10:05.012Z,102159.55
2018-05-24T17:13:08.468Z,102162.00
2018-05-24T17:16:11.877Z,102150.61
2018-05-24T17:19:15.245Z,102147.38
2018-05-24T17:22:18.655Z,102153.89
2018-05-24T17:25:21.973Z,102143.86
2018-05-24T17:28:26.214Z,102152.78
2018-05-24T17:31:29.579Z,102151.53
2018-05-24T17:34:33.001Z,102155.95
2018-05-24T17:37:37.173Z,102157.70
2018-05-24T17:40:40.573Z,102158.58
2018-05-24T17:43:44.797Z,102153.75
2018-05-24T17:46:49.733Z,102159.46
2018-05-24T17:49:53.106Z,102160.77
2018-05-24T17:52:56.447Z,102156.38
2018-05-24T17:56:00.637Z,102162.08
2018-05-24T17:59:03.972Z,102167.81
2018-05-24T18:02:07.313Z,102165.17
2018-05-24T18:05:10.773Z,102166.03
2018-05-24T18:08:14.121Z,102163.82
2018-05-24T18:11:17.476Z,102170.39
2018-05-24T18:14:20.821Z,102174.36
2018-05-24T18:17:24.154Z,102169.92
2018-05-24T18:20:27.674Z,102176.52
2018-05-24T18:23:31.014Z,102177.38
2018-05-24T18:26:34.360Z,102173.81
2018-05-24T18:29:37.654Z,102168.52
2018-05-24T18:32:41.019Z,102173.36
2018-05-24T18:35:45.112Z,102176.02
2018-05-24T18:38:48.474Z,102177.32
2018-05-24T18:41:51.909Z,102179.07
2018-05-24T18:44:55.298Z,102176.41
2018-05-24T18:47:58.634Z,102178.58
2018-05-24T18:51:02.708Z,102185.98
2018-05-24T18:54:06.046Z,102185.55
2018-05-24T18:57:10.217Z,102185.06
2018-05-24T19:00:13.497Z,102185.00
2018-05-24T19:03:16.945Z,102188.02
2018-05-24T19:06:20.303Z,102193.27
2018-05-24T19:09:23.642Z,102196.71
2018-05-24T19:12:27.028Z,102195.37
2018-05-24T19:15:31.873Z,102200.06
2018-05-24T19:18:35.203Z,102197.41
2018-05-24T19:21:38.647Z,102199.13
2018-05-24T19:24:41.990Z,102201.67
2018-05-24T19:27:46.174Z,102200.80
2018-05-24T19:30:49.561Z,102208.60
2018-05-24T19:33:52.965Z,102205.97
2018-05-24T19:36:56.302Z,102207.25
2018-05-24T19:40:00.412Z,102210.22
2018-05-24T19:43:04.517Z,102205.79
2018-05-24T19:46:07.841Z,102210.97
2018-05-24T19:49:11.155Z,102203.48
2018-05-24T19:52:14.512Z,102205.63
2018-05-24T19:55:17.882Z,102209.06
2018-05-24T19:58:21.210Z,102213.80
2018-05-24T20:01:24.553Z,102221.69
2018-05-24T20:04:27.892Z,102218.16
2018-05-24T20:07:32.546Z,102221.16
2018-05-24T20:10:36.842Z,102225.08
2018-05-24T20:13:40.189Z,102228.05
2018-05-24T20:16:43.605Z,102223.57
2018-05-24T20:19:47.037Z,102225.73
2018-05-24T20:22:50.534Z,102217.41
2018-05-24T20:25:54.854Z,102218.22
2018-05-24T20:28:58.261Z,102216.81
2018-05-24T20:32:01.659Z,102215.43
2018-05-24T20:35:04.971Z,102217.99
2018-05-24T20:38:08.550Z,102218.83
2018-05-24T20:41:11.945Z,102222.27
2018-05-24T20:44:15.319Z,102218.26
2018-05-24T20:47:19.044Z,102219.91
2018-05-24T20:50:22.369Z,102218.11
2018-05-24T20:53:25.706Z,102222.38
2018-05-24T20:56:29.240Z,102217.93
2018-05-24T20:59:32.763Z,102213.99
2018-05-24T21:02:36.259Z,102215.74
2018-05-24T21:05:39.687Z,102216.98
2018-05-24T21:08:43.103Z,102221.16
2018-05-24T21:11:46.540Z,102222.83
2018-05-24T21:14:49.886Z,102216.15
2018-05-24T21:17:53.222Z,102214.95
2018-05-24T21:20:56.551Z,102217.98
2018-05-24T21:23:59.900Z,102218.30
2018-05-24T21:27:03.239Z,102222.23
2018-05-24T21:30:06.626Z,102215.51
2018-05-24T21:33:10.011Z,102219.80
2018-05-24T21:36:13.431Z,102221.19
2018-05-24T21:39:16.806Z,102217.30
2018-05-24T21:42:20.141Z,102215.07
2018-05-24T21:45:24.225Z,102226.48
2018-05-24T21:48:27.617Z,102215.07
2018-05-24T21:51:30.934Z,102223.42
2018-05-24T21:54:34.272Z,102223.34
2018-05-24T21:57:37.619Z,102224.66
2018-05-24T22:00:46.409Z,102229.90
2018-05-24T22:03:50.538Z,102223.81
2018-05-24T22:06:53.950Z,102229.50
2018-05-24T22:09:57.337Z,102230.70
2018-05-24T22:13:00.738Z,102231.13
2018-05-24T22:16:04.142Z,102228.50
2018-05-24T22:19:07.530Z,102228.90
2018-05-24T22:22:10.865Z,102229.30
2018-05-24T22:25:14.951Z,102238.43
2018-05-24T22:28:18.288Z,102233.97
2018-05-24T22:31:21.605Z,102241.80
2018-05-24T22:34:25.042Z,102233.05
2018-05-24T22:37:28.395Z,102236.98
2018-05-24T22:40:31.842Z,102238.95
2018-05-24T22:43:35.223Z,102244.58
2018-05-24T22:46:38.590Z,102234.05
2018-05-24T22:49:41.948Z,102234.96
2018-05-24T22:52:46.015Z,102237.92
2018-05-24T22:55:49.352Z,102240.94
2018-05-24T22:58:53.541Z,102232.59
2018-05-24T23:01:56.933Z,102238.55
2018-05-24T23:05:00.247Z,102236.33
2018-05-24T23:08:04.959Z,102235.02
2018-05-24T23:11:08.261Z,102228.99
2018-05-24T23:14:11.657Z,102229.87
2018-05-24T23:17:14.990Z,102227.25
2018-05-24T23:20:19.065Z,102228.95
2018-05-24T23:23:22.422Z,102225.84
2018-05-24T23:26:25.750Z,102226.75
2018-05-24T23:29:29.172Z,102221.47
2018-05-24T23:32:32.505Z,102217.48
2018-05-24T23:35:35.802Z,102219.63
2018-05-24T23:38:39.154Z,102218.66
2018-05-24T23:41:42.474Z,102212.91
2018-05-24T23:44:46.572Z,102211.52
2018-05-24T23:47:49.936Z,102212.77
2018-05-24T23:50:53.340Z,102207.03
2018-05-24T23:53:56.660Z,102213.61
2018-05-24T23:56:59.978Z,102213.98
